sensor_id;sensor_type;location;lat;lon;timestamp;temperature;humidity
32614;DHT22;19031;51.400;6.770;2023-05-16T00:01:58;11.40;99.90
32614;DHT22;19031;51.400;6.770;2023-05-16T00:04:24;11.40;99.90
32614;DHT22;19031;51.400;6.770;2023-05-16T00:06:50;11.40;99.90
32614;DHT22;19031;51.400;6.770;2023-05-16T00:09:16;11.40;99.90
32614;DHT22;19031;51.400;6.770;2023-05-16T00:11:41;11.30;99.90
32614;DHT22;19031;51.400;6.770;2023-05-16T00:14:07;11.20;99.90
32614;DHT22;19031;51.400;6.770;2023-05-16T00:16:33;11.10;99.90
32614;DHT22;19031;51.400;6.770;2023-05-16T00:19:01;11.10;99.90
32614;DHT22;19031;51.400;6.770;2023-05-16T00:21:27;11.10;99.90
32614;DHT22;19031;51.400;6.770;2023-05-16T00:23:53;11.00;99.90
32614;DHT22;19031;51.400;6.770;2023-05-16T00:26:18;11.10;99.90
32614;DHT22;19031;51.400;6.770;2023-05-16T00:28:44;11.20;99.90
32614;DHT22;19031;51.400;6.770;2023-05-16T00:31:09;11.00;99.90
32614;DHT22;19031;51.400;6.770;2023-05-16T00:33:35;11.00;99.90
32614;DHT22;19031;51.400;6.770;2023-05-16T00:36:01;10.90;99.90
32614;DHT22;19031;51.400;6.770;2023-05-16T00:38:26;10.90;99.90
32614;DHT22;19031;51.400;6.770;2023-05-16T00:40:52;10.90;99.90
32614;DHT22;19031;51.400;6.770;2023-05-16T00:43:18;10.90;99.90
32614;DHT22;19031;51.400;6.770;2023-05-16T00:45:44;10.90;99.90
32614;DHT22;19031;51.400;6.770;2023-05-16T00:48:12;10.80;99.90
32614;DHT22;19031;51.400;6.770;2023-05-16T00:50:38;10.80;99.90
32614;DHT22;19031;51.400;6.770;2023-05-16T00:53:04;10.90;99.90
32614;DHT22;19031;51.400;6.770;2023-05-16T00:55:30;10.80;99.90
32614;DHT22;19031;51.400;6.770;2023-05-16T00:57:57;10.70;99.90
32614;DHT22;19031;51.400;6.770;2023-05-16T01:00:24;10.70;99.90
32614;DHT22;19031;51.400;6.770;2023-05-16T01:02:50;10.70;99.90
32614;DHT22;19031;51.400;6.770;2023-05-16T01:05:18;10.60;99.90
32614;DHT22;19031;51.400;6.770;2023-05-16T01:07:44;10.70;99.90
32614;DHT22;19031;51.400;6.770;2023-05-16T01:10:10;10.50;99.90
32614;DHT22;19031;51.400;6.770;2023-05-16T01:12:44;10.60;99.90
32614;DHT22;19031;51.400;6.770;2023-05-16T01:15:29;10.60;99.90
32614;DHT22;19031;51.400;6.770;2023-05-16T01:17:59;10.50;99.90
32614;DHT22;19031;51.400;6.770;2023-05-16T01:23:59;10.60;99.90
32614;DHT22;19031;51.400;6.770;2023-05-16T01:28:45;10.60;99.90
32614;DHT22;19031;51.400;6.770;2023-05-16T01:31:11;10.40;99.90
32614;DHT22;19031;51.400;6.770;2023-05-16T01:33:37;10.40;99.90
32614;DHT22;19031;51.400;6.770;2023-05-16T01:39:01;10.10;99.90
32614;DHT22;19031;51.400;6.770;2023-05-16T01:44:32;10.20;99.90
32614;DHT22;19031;51.400;6.770;2023-05-16T01:47:02;10.10;99.90
32614;DHT22;19031;51.400;6.770;2023-05-16T01:49:45;10.20;99.90
32614;DHT22;19031;51.400;6.770;2023-05-16T01:52:19;10.20;99.90
32614;DHT22;19031;51.400;6.770;2023-05-16T01:54:47;10.40;99.90
32614;DHT22;19031;51.400;6.770;2023-05-16T01:57:13;10.30;99.90
32614;DHT22;19031;51.400;6.770;2023-05-16T01:59:41;10.20;99.90
32614;DHT22;19031;51.400;6.770;2023-05-16T02:02:07;10.30;99.90
32614;DHT22;19031;51.400;6.770;2023-05-16T02:04:32;10.30;99.90
32614;DHT22;19031;51.400;6.770;2023-05-16T02:06:59;10.20;99.90
32614;DHT22;19031;51.400;6.770;2023-05-16T02:09:25;10.20;99.90
32614;DHT22;19031;51.400;6.770;2023-05-16T02:11:50;10.20;99.90
32614;DHT22;19031;51.400;6.770;2023-05-16T02:14:16;10.20;99.90
32614;DHT22;19031;51.400;6.770;2023-05-16T02:16:42;10.10;99.90
32614;DHT22;19031;51.400;6.770;2023-05-16T02:19:07;10.10;99.90
32614;DHT22;19031;51.400;6.770;2023-05-16T02:21:33;10.00;99.90
32614;DHT22;19031;51.400;6.770;2023-05-16T02:23:58;10.00;99.90
32614;DHT22;19031;51.400;6.770;2023-05-16T02:26:24;10.10;99.90
32614;DHT22;19031;51.400;6.770;2023-05-16T02:28:50;10.10;99.90
32614;DHT22;19031;51.400;6.770;2023-05-16T02:31:29;10.10;99.90
32614;DHT22;19031;51.400;6.770;2023-05-16T02:33:56;10.00;99.90
32614;DHT22;19031;51.400;6.770;2023-05-16T02:36:21;10.10;99.90
32614;DHT22;19031;51.400;6.770;2023-05-16T02:38:47;10.10;99.90
32614;DHT22;19031;51.400;6.770;2023-05-16T02:41:12;10.20;99.90
32614;DHT22;19031;51.400;6.770;2023-05-16T02:43:38;10.10;99.90
32614;DHT22;19031;51.400;6.770;2023-05-16T02:46:04;10.10;99.90
32614;DHT22;19031;51.400;6.770;2023-05-16T02:48:30;10.00;99.90
32614;DHT22;19031;51.400;6.770;2023-05-16T02:50:56;10.00;99.90
32614;DHT22;19031;51.400;6.770;2023-05-16T02:53:21;10.00;99.90
32614;DHT22;19031;51.400;6.770;2023-05-16T02:55:47;10.00;99.90
32614;DHT22;19031;51.400;6.770;2023-05-16T02:58:12;10.00;99.90
32614;DHT22;19031;51.400;6.770;2023-05-16T03:00:38;10.00;99.90
32614;DHT22;19031;51.400;6.770;2023-05-16T03:03:04;9.90;99.90
32614;DHT22;19031;51.400;6.770;2023-05-16T03:05:29;9.80;99.90
32614;DHT22;19031;51.400;6.770;2023-05-16T03:07:56;9.90;99.90
32614;DHT22;19031;51.400;6.770;2023-05-16T03:10:21;9.90;99.90
32614;DHT22;19031;51.400;6.770;2023-05-16T03:12:47;9.90;99.90
32614;DHT22;19031;51.400;6.770;2023-05-16T03:15:12;9.80;99.90
32614;DHT22;19031;51.400;6.770;2023-05-16T03:17:38;9.90;99.90
32614;DHT22;19031;51.400;6.770;2023-05-16T03:20:04;9.80;99.90
32614;DHT22;19031;51.400;6.770;2023-05-16T03:22:33;9.70;99.90
32614;DHT22;19031;51.400;6.770;2023-05-16T03:24:59;9.60;99.90
32614;DHT22;19031;51.400;6.770;2023-05-16T03:27:26;9.50;99.90
32614;DHT22;19031;51.400;6.770;2023-05-16T03:29:52;9.50;99.90
32614;DHT22;19031;51.400;6.770;2023-05-16T03:32:17;9.40;99.90
32614;DHT22;19031;51.400;6.770;2023-05-16T03:34:43;9.40;99.90
32614;DHT22;19031;51.400;6.770;2023-05-16T03:37:08;9.30;99.90
32614;DHT22;19031;51.400;6.770;2023-05-16T03:39:35;9.30;99.90
32614;DHT22;19031;51.400;6.770;2023-05-16T03:42:00;9.30;99.90
32614;DHT22;19031;51.400;6.770;2023-05-16T03:44:26;9.30;99.90
32614;DHT22;19031;51.400;6.770;2023-05-16T03:46:52;9.30;99.90
32614;DHT22;19031;51.400;6.770;2023-05-16T03:49:19;9.30;99.90
32614;DHT22;19031;51.400;6.770;2023-05-16T03:51:45;9.20;99.90
32614;DHT22;19031;51.400;6.770;2023-05-16T03:54:11;9.20;99.90
32614;DHT22;19031;51.400;6.770;2023-05-16T03:56:36;9.30;99.90
32614;DHT22;19031;51.400;6.770;2023-05-16T03:59:02;9.30;99.90
32614;DHT22;19031;51.400;6.770;2023-05-16T04:01:27;9.30;99.90
32614;DHT22;19031;51.400;6.770;2023-05-16T04:03:53;9.30;99.90
32614;DHT22;19031;51.400;6.770;2023-05-16T04:06:20;9.40;99.90
32614;DHT22;19031;51.400;6.770;2023-05-16T04:08:45;9.20;99.90
32614;DHT22;19031;51.400;6.770;2023-05-16T04:11:11;9.20;99.90
32614;DHT22;19031;51.400;6.770;2023-05-16T04:13:36;9.20;99.90
32614;DHT22;19031;51.400;6.770;2023-05-16T04:16:02;9.10;99.90
32614;DHT22;19031;51.400;6.770;2023-05-16T04:18:27;9.20;99.90
32614;DHT22;19031;51.400;6.770;2023-05-16T04:20:53;9.10;99.90
32614;DHT22;19031;51.400;6.770;2023-05-16T04:23:18;9.10;99.90
32614;DHT22;19031;51.400;6.770;2023-05-16T04:25:44;9.10;99.90
32614;DHT22;19031;51.400;6.770;2023-05-16T04:28:10;9.10;99.90
32614;DHT22;19031;51.400;6.770;2023-05-16T04:30:36;9.00;99.90
32614;DHT22;19031;51.400;6.770;2023-05-16T04:33:02;8.80;99.90
32614;DHT22;19031;51.400;6.770;2023-05-16T04:35:28;8.90;99.90
32614;DHT22;19031;51.400;6.770;2023-05-16T04:37:53;8.90;99.90
32614;DHT22;19031;51.400;6.770;2023-05-16T04:40:19;9.00;99.90
32614;DHT22;19031;51.400;6.770;2023-05-16T04:42:45;8.90;99.90
32614;DHT22;19031;51.400;6.770;2023-05-16T04:45:11;9.00;99.90
32614;DHT22;19031;51.400;6.770;2023-05-16T04:47:38;9.00;99.90
32614;DHT22;19031;51.400;6.770;2023-05-16T04:50:07;9.00;99.90
32614;DHT22;19031;51.400;6.770;2023-05-16T04:52:36;9.00;99.90
32614;DHT22;19031;51.400;6.770;2023-05-16T04:55:03;8.90;99.90
32614;DHT22;19031;51.400;6.770;2023-05-16T04:57:28;9.00;99.90
32614;DHT22;19031;51.400;6.770;2023-05-16T04:59:54;9.00;99.90
32614;DHT22;19031;51.400;6.770;2023-05-16T05:02:19;9.00;99.90
32614;DHT22;19031;51.400;6.770;2023-05-16T05:04:45;9.00;99.90
32614;DHT22;19031;51.400;6.770;2023-05-16T05:07:11;9.00;99.90
32614;DHT22;19031;51.400;6.770;2023-05-16T05:09:36;8.90;99.90
32614;DHT22;19031;51.400;6.770;2023-05-16T05:12:02;9.00;99.90
32614;DHT22;19031;51.400;6.770;2023-05-16T05:14:28;8.90;99.90
32614;DHT22;19031;51.400;6.770;2023-05-16T05:16:53;9.00;99.90
32614;DHT22;19031;51.400;6.770;2023-05-16T05:19:19;9.00;99.90
32614;DHT22;19031;51.400;6.770;2023-05-16T05:21:45;9.00;99.90
32614;DHT22;19031;51.400;6.770;2023-05-16T05:24:10;9.10;99.90
32614;DHT22;19031;51.400;6.770;2023-05-16T05:26:36;9.00;99.90
32614;DHT22;19031;51.400;6.770;2023-05-16T05:29:01;9.00;99.90
32614;DHT22;19031;51.400;6.770;2023-05-16T05:31:27;9.10;99.90
32614;DHT22;19031;51.400;6.770;2023-05-16T05:33:52;9.20;99.90
32614;DHT22;19031;51.400;6.770;2023-05-16T05:36:19;9.30;99.90
32614;DHT22;19031;51.400;6.770;2023-05-16T05:38:44;9.30;99.90
32614;DHT22;19031;51.400;6.770;2023-05-16T05:41:10;9.40;99.90
32614;DHT22;19031;51.400;6.770;2023-05-16T05:43:36;9.40;99.90
32614;DHT22;19031;51.400;6.770;2023-05-16T05:46:02;9.50;99.90
32614;DHT22;19031;51.400;6.770;2023-05-16T05:48:27;9.70;99.90
32614;DHT22;19031;51.400;6.770;2023-05-16T05:50:57;9.80;99.90
32614;DHT22;19031;51.400;6.770;2023-05-16T05:53:22;10.10;99.90
32614;DHT22;19031;51.400;6.770;2023-05-16T05:55:48;10.30;99.90
32614;DHT22;19031;51.400;6.770;2023-05-16T05:58:13;10.40;99.90
32614;DHT22;19031;51.400;6.770;2023-05-16T06:00:39;10.50;99.90
32614;DHT22;19031;51.400;6.770;2023-05-16T06:03:05;10.60;99.90
32614;DHT22;19031;51.400;6.770;2023-05-16T06:05:30;10.60;99.90
32614;DHT22;19031;51.400;6.770;2023-05-16T06:07:56;10.60;99.90
32614;DHT22;19031;51.400;6.770;2023-05-16T06:10:22;10.80;99.90
32614;DHT22;19031;51.400;6.770;2023-05-16T06:12:47;11.00;99.90
32614;DHT22;19031;51.400;6.770;2023-05-16T06:15:13;11.10;99.90
32614;DHT22;19031;51.400;6.770;2023-05-16T06:17:38;11.10;99.90
32614;DHT22;19031;51.400;6.770;2023-05-16T06:20:04;11.20;99.90
32614;DHT22;19031;51.400;6.770;2023-05-16T06:22:30;11.40;99.90
32614;DHT22;19031;51.400;6.770;2023-05-16T06:24:56;11.30;99.90
32614;DHT22;19031;51.400;6.770;2023-05-16T06:27:22;11.40;99.90
32614;DHT22;19031;51.400;6.770;2023-05-16T06:29:47;11.40;99.90
32614;DHT22;19031;51.400;6.770;2023-05-16T06:32:13;11.80;99.90
32614;DHT22;19031;51.400;6.770;2023-05-16T06:34:38;11.60;99.90
32614;DHT22;19031;51.400;6.770;2023-05-16T06:37:04;11.60;99.90
32614;DHT22;19031;51.400;6.770;2023-05-16T06:39:29;11.60;99.90
32614;DHT22;19031;51.400;6.770;2023-05-16T06:41:55;11.90;99.90
32614;DHT22;19031;51.400;6.770;2023-05-16T06:44:22;11.90;99.90
32614;DHT22;19031;51.400;6.770;2023-05-16T06:46:47;11.90;99.90
32614;DHT22;19031;51.400;6.770;2023-05-16T06:49:13;12.20;99.90
32614;DHT22;19031;51.400;6.770;2023-05-16T06:51:39;11.90;99.90
32614;DHT22;19031;51.400;6.770;2023-05-16T06:54:04;11.90;99.90
32614;DHT22;19031;51.400;6.770;2023-05-16T06:56:30;12.10;99.90
32614;DHT22;19031;51.400;6.770;2023-05-16T06:58:56;12.10;99.90
32614;DHT22;19031;51.400;6.770;2023-05-16T07:01:21;12.30;99.90
32614;DHT22;19031;51.400;6.770;2023-05-16T07:03:47;12.40;99.90
32614;DHT22;19031;51.400;6.770;2023-05-16T07:06:12;12.50;99.90
32614;DHT22;19031;51.400;6.770;2023-05-16T07:08:38;12.60;99.90
32614;DHT22;19031;51.400;6.770;2023-05-16T07:11:03;12.30;99.90
32614;DHT22;19031;51.400;6.770;2023-05-16T07:13:29;12.30;99.90
32614;DHT22;19031;51.400;6.770;2023-05-16T07:15:55;12.30;99.90
32614;DHT22;19031;51.400;6.770;2023-05-16T07:18:20;12.40;99.90
32614;DHT22;19031;51.400;6.770;2023-05-16T07:20:46;12.60;99.90
32614;DHT22;19031;51.400;6.770;2023-05-16T07:23:12;12.60;99.90
32614;DHT22;19031;51.400;6.770;2023-05-16T07:25:38;12.60;99.90
32614;DHT22;19031;51.400;6.770;2023-05-16T07:28:04;12.60;99.90
32614;DHT22;19031;51.400;6.770;2023-05-16T07:30:29;12.90;99.90
32614;DHT22;19031;51.400;6.770;2023-05-16T07:32:55;13.10;99.90
32614;DHT22;19031;51.400;6.770;2023-05-16T07:35:21;13.10;99.90
32614;DHT22;19031;51.400;6.770;2023-05-16T07:37:46;13.40;99.90
32614;DHT22;19031;51.400;6.770;2023-05-16T07:40:12;13.70;99.90
32614;DHT22;19031;51.400;6.770;2023-05-16T07:42:38;13.80;99.90
32614;DHT22;19031;51.400;6.770;2023-05-16T07:45:05;13.80;99.90
32614;DHT22;19031;51.400;6.770;2023-05-16T07:47:31;13.70;99.90
32614;DHT22;19031;51.400;6.770;2023-05-16T07:49:57;13.80;99.90
32614;DHT22;19031;51.400;6.770;2023-05-16T07:52:22;13.00;99.90
32614;DHT22;19031;51.400;6.770;2023-05-16T07:54:48;12.90;99.90
32614;DHT22;19031;51.400;6.770;2023-05-16T07:57:14;12.70;99.90
32614;DHT22;19031;51.400;6.770;2023-05-16T07:59:40;12.80;99.90
32614;DHT22;19031;51.400;6.770;2023-05-16T08:02:06;13.00;99.90
32614;DHT22;19031;51.400;6.770;2023-05-16T08:04:31;13.40;99.90
32614;DHT22;19031;51.400;6.770;2023-05-16T08:06:57;13.20;99.90
32614;DHT22;19031;51.400;6.770;2023-05-16T08:09:23;13.60;99.90
32614;DHT22;19031;51.400;6.770;2023-05-16T08:11:48;13.60;99.90
32614;DHT22;19031;51.400;6.770;2023-05-16T08:14:14;13.40;99.90
32614;DHT22;19031;51.400;6.770;2023-05-16T08:16:39;13.10;99.90
32614;DHT22;19031;51.400;6.770;2023-05-16T08:19:05;12.70;99.90
32614;DHT22;19031;51.400;6.770;2023-05-16T08:21:31;13.00;99.90
32614;DHT22;19031;51.400;6.770;2023-05-16T08:23:57;13.00;99.90
32614;DHT22;19031;51.400;6.770;2023-05-16T08:26:22;13.10;99.90
32614;DHT22;19031;51.400;6.770;2023-05-16T08:28:49;13.30;99.90
32614;DHT22;19031;51.400;6.770;2023-05-16T08:31:15;13.80;99.90
32614;DHT22;19031;51.400;6.770;2023-05-16T08:33:40;14.00;99.90
32614;DHT22;19031;51.400;6.770;2023-05-16T08:36:08;14.00;99.90
32614;DHT22;19031;51.400;6.770;2023-05-16T08:38:33;13.90;99.90
32614;DHT22;19031;51.400;6.770;2023-05-16T08:40:59;13.80;99.90
32614;DHT22;19031;51.400;6.770;2023-05-16T08:43:24;13.50;99.90
32614;DHT22;19031;51.400;6.770;2023-05-16T08:45:50;13.70;99.90
32614;DHT22;19031;51.400;6.770;2023-05-16T08:48:16;14.00;99.90
32614;DHT22;19031;51.400;6.770;2023-05-16T08:50:45;14.60;99.90
32614;DHT22;19031;51.400;6.770;2023-05-16T08:53:11;15.10;99.90
32614;DHT22;19031;51.400;6.770;2023-05-16T08:55:40;15.70;99.90
32614;DHT22;19031;51.400;6.770;2023-05-16T08:58:07;16.10;99.90
32614;DHT22;19031;51.400;6.770;2023-05-16T09:00:34;16.00;99.90
32614;DHT22;19031;51.400;6.770;2023-05-16T09:03:00;16.00;99.90
32614;DHT22;19031;51.400;6.770;2023-05-16T09:05:28;16.00;99.90
32614;DHT22;19031;51.400;6.770;2023-05-16T09:07:55;15.60;99.90
32614;DHT22;19031;51.400;6.770;2023-05-16T09:10:20;15.70;99.90
32614;DHT22;19031;51.400;6.770;2023-05-16T09:12:46;15.70;99.90
32614;DHT22;19031;51.400;6.770;2023-05-16T09:15:12;15.30;99.90
32614;DHT22;19031;51.400;6.770;2023-05-16T09:17:39;15.20;99.90
32614;DHT22;19031;51.400;6.770;2023-05-16T09:20:16;14.90;99.90
32614;DHT22;19031;51.400;6.770;2023-05-16T09:22:56;14.80;99.90
32614;DHT22;19031;51.400;6.770;2023-05-16T09:25:24;14.70;99.90
32614;DHT22;19031;51.400;6.770;2023-05-16T09:27:57;15.00;99.90
32614;DHT22;19031;51.400;6.770;2023-05-16T09:30:29;15.70;99.80
32614;DHT22;19031;51.400;6.770;2023-05-16T09:32:55;16.30;99.90
32614;DHT22;19031;51.400;6.770;2023-05-16T09:35:22;16.30;98.10
32614;DHT22;19031;51.400;6.770;2023-05-16T09:37:49;16.50;99.90
32614;DHT22;19031;51.400;6.770;2023-05-16T09:40:19;16.40;98.20
32614;DHT22;19031;51.400;6.770;2023-05-16T09:42:45;16.30;98.70
32614;DHT22;19031;51.400;6.770;2023-05-16T09:45:11;16.30;99.90
32614;DHT22;19031;51.400;6.770;2023-05-16T09:47:38;16.00;99.90
32614;DHT22;19031;51.400;6.770;2023-05-16T09:50:13;16.00;99.90
32614;DHT22;19031;51.400;6.770;2023-05-16T09:52:39;15.70;99.90
32614;DHT22;19031;51.400;6.770;2023-05-16T09:55:09;15.70;99.90
32614;DHT22;19031;51.400;6.770;2023-05-16T09:57:38;15.40;99.90
32614;DHT22;19031;51.400;6.770;2023-05-16T10:00:10;15.20;99.90
32614;DHT22;19031;51.400;6.770;2023-05-16T10:02:40;15.10;99.90
32614;DHT22;19031;51.400;6.770;2023-05-16T10:05:06;15.00;99.90
32614;DHT22;19031;51.400;6.770;2023-05-16T10:07:32;14.90;99.90
32614;DHT22;19031;51.400;6.770;2023-05-16T10:10:06;15.30;99.90
32614;DHT22;19031;51.400;6.770;2023-05-16T10:12:33;15.80;99.90
32614;DHT22;19031;51.400;6.770;2023-05-16T10:15:03;16.20;99.90
32614;DHT22;19031;51.400;6.770;2023-05-16T10:17:31;16.80;99.90
32614;DHT22;19031;51.400;6.770;2023-05-16T10:20:01;16.80;99.90
32614;DHT22;19031;51.400;6.770;2023-05-16T10:22:35;16.70;99.90
32614;DHT22;19031;51.400;6.770;2023-05-16T10:25:31;16.50;99.90
32614;DHT22;19031;51.400;6.770;2023-05-16T10:27:58;16.40;99.90
32614;DHT22;19031;51.400;6.770;2023-05-16T10:30:24;16.50;99.90
32614;DHT22;19031;51.400;6.770;2023-05-16T10:32:51;16.20;99.90
32614;DHT22;19031;51.400;6.770;2023-05-16T10:35:18;16.10;99.90
32614;DHT22;19031;51.400;6.770;2023-05-16T10:37:45;16.30;99.90
32614;DHT22;19031;51.400;6.770;2023-05-16T10:40:11;16.20;99.90
32614;DHT22;19031;51.400;6.770;2023-05-16T10:42:37;15.40;99.90
32614;DHT22;19031;51.400;6.770;2023-05-16T10:45:18;15.20;99.90
32614;DHT22;19031;51.400;6.770;2023-05-16T10:47:54;15.40;99.90
32614;DHT22;19031;51.400;6.770;2023-05-16T10:52:56;16.70;99.90
32614;DHT22;19031;51.400;6.770;2023-05-16T10:55:35;17.20;99.90
32614;DHT22;19031;51.400;6.770;2023-05-16T10:58:02;18.00;99.90
32614;DHT22;19031;51.400;6.770;2023-05-16T11:00:29;18.30;99.60
32614;DHT22;19031;51.400;6.770;2023-05-16T11:03:03;18.80;98.20
32614;DHT22;19031;51.400;6.770;2023-05-16T11:05:30;18.80;97.20
32614;DHT22;19031;51.400;6.770;2023-05-16T11:08:05;19.10;96.40
32614;DHT22;19031;51.400;6.770;2023-05-16T11:10:31;19.20;91.80
32614;DHT22;19031;51.400;6.770;2023-05-16T11:13:02;18.90;95.40
32614;DHT22;19031;51.400;6.770;2023-05-16T11:15:31;19.30;92.90
32614;DHT22;19031;51.400;6.770;2023-05-16T11:18:13;18.70;93.70
32614;DHT22;19031;51.400;6.770;2023-05-16T11:20:40;18.40;94.20
32614;DHT22;19031;51.400;6.770;2023-05-16T11:25:58;19.90;93.40
32614;DHT22;19031;51.400;6.770;2023-05-16T11:28:26;20.50;90.40
32614;DHT22;19031;51.400;6.770;2023-05-16T11:30:56;20.50;90.30
32614;DHT22;19031;51.400;6.770;2023-05-16T11:33:23;20.20;90.90
32614;DHT22;19031;51.400;6.770;2023-05-16T11:36:04;19.00;92.50
32614;DHT22;19031;51.400;6.770;2023-05-16T11:38:31;18.10;96.70
32614;DHT22;19031;51.400;6.770;2023-05-16T11:41:04;17.50;99.70
32614;DHT22;19031;51.400;6.770;2023-05-16T11:43:39;17.10;99.90
32614;DHT22;19031;51.400;6.770;2023-05-16T11:46:05;16.10;99.90
32614;DHT22;19031;51.400;6.770;2023-05-16T11:48:32;15.70;99.90
32614;DHT22;19031;51.400;6.770;2023-05-16T11:50:57;15.40;99.90
32614;DHT22;19031;51.400;6.770;2023-05-16T11:53:23;15.20;99.90
32614;DHT22;19031;51.400;6.770;2023-05-16T11:55:49;15.30;99.90
32614;DHT22;19031;51.400;6.770;2023-05-16T11:58:18;15.70;99.90
32614;DHT22;19031;51.400;6.770;2023-05-16T12:00:50;16.30;99.90
32614;DHT22;19031;51.400;6.770;2023-05-16T12:03:18;16.50;99.90
32614;DHT22;19031;51.400;6.770;2023-05-16T12:05:53;17.30;99.90
32614;DHT22;19031;51.400;6.770;2023-05-16T12:08:20;17.70;99.90
32614;DHT22;19031;51.400;6.770;2023-05-16T12:10:48;17.90;99.90
32614;DHT22;19031;51.400;6.770;2023-05-16T12:13:16;18.40;99.70
32614;DHT22;19031;51.400;6.770;2023-05-16T12:15:42;18.60;99.90
32614;DHT22;19031;51.400;6.770;2023-05-16T12:18:08;19.00;99.90
32614;DHT22;19031;51.400;6.770;2023-05-16T12:20:34;19.50;98.20
32614;DHT22;19031;51.400;6.770;2023-05-16T12:23:00;19.40;94.60
32614;DHT22;19031;51.400;6.770;2023-05-16T12:25:26;19.70;95.20
32614;DHT22;19031;51.400;6.770;2023-05-16T12:27:53;19.70;93.30
32614;DHT22;19031;51.400;6.770;2023-05-16T12:30:22;20.40;94.50
32614;DHT22;19031;51.400;6.770;2023-05-16T12:33:07;20.10;92.10
32614;DHT22;19031;51.400;6.770;2023-05-16T12:35:34;20.20;81.90
32614;DHT22;19031;51.400;6.770;2023-05-16T12:38:09;20.40;70.50
32614;DHT22;19031;51.400;6.770;2023-05-16T12:40:36;20.90;78.80
32614;DHT22;19031;51.400;6.770;2023-05-16T12:43:02;21.00;76.20
32614;DHT22;19031;51.400;6.770;2023-05-16T12:45:28;21.00;80.40
32614;DHT22;19031;51.400;6.770;2023-05-16T12:47:53;20.80;73.80
32614;DHT22;19031;51.400;6.770;2023-05-16T12:50:19;21.20;74.00
32614;DHT22;19031;51.400;6.770;2023-05-16T12:52:50;20.90;73.60
32614;DHT22;19031;51.400;6.770;2023-05-16T12:55:17;20.50;73.50
32614;DHT22;19031;51.400;6.770;2023-05-16T12:57:44;21.00;75.20
32614;DHT22;19031;51.400;6.770;2023-05-16T13:00:11;21.10;80.70
32614;DHT22;19031;51.400;6.770;2023-05-16T13:02:37;21.60;71.00
32614;DHT22;19031;51.400;6.770;2023-05-16T13:05:03;22.00;63.40
32614;DHT22;19031;51.400;6.770;2023-05-16T13:07:31;21.00;65.40
32614;DHT22;19031;51.400;6.770;2023-05-16T13:09:57;20.60;65.40
32614;DHT22;19031;51.400;6.770;2023-05-16T13:12:22;20.70;70.10
32614;DHT22;19031;51.400;6.770;2023-05-16T13:14:51;20.90;69.60
32614;DHT22;19031;51.400;6.770;2023-05-16T13:17:17;20.90;72.80
32614;DHT22;19031;51.400;6.770;2023-05-16T13:19:42;21.20;71.70
32614;DHT22;19031;51.400;6.770;2023-05-16T13:22:08;20.70;67.80
32614;DHT22;19031;51.400;6.770;2023-05-16T13:24:33;20.90;68.60
32614;DHT22;19031;51.400;6.770;2023-05-16T13:26:59;21.70;70.40
32614;DHT22;19031;51.400;6.770;2023-05-16T13:29:25;22.10;68.70
32614;DHT22;19031;51.400;6.770;2023-05-16T13:31:50;22.00;65.00
32614;DHT22;19031;51.400;6.770;2023-05-16T13:34:16;21.60;67.60
32614;DHT22;19031;51.400;6.770;2023-05-16T13:36:42;21.50;65.70
32614;DHT22;19031;51.400;6.770;2023-05-16T13:39:07;20.70;67.70
32614;DHT22;19031;51.400;6.770;2023-05-16T13:41:33;19.80;69.50
32614;DHT22;19031;51.400;6.770;2023-05-16T13:44:02;19.30;76.20
32614;DHT22;19031;51.400;6.770;2023-05-16T13:46:28;18.60;76.00
32614;DHT22;19031;51.400;6.770;2023-05-16T13:48:54;17.90;82.30
32614;DHT22;19031;51.400;6.770;2023-05-16T13:51:19;17.70;90.10
32614;DHT22;19031;51.400;6.770;2023-05-16T13:53:45;17.30;90.70
32614;DHT22;19031;51.400;6.770;2023-05-16T13:56:10;17.30;92.00
32614;DHT22;19031;51.400;6.770;2023-05-16T13:58:36;17.00;92.80
32614;DHT22;19031;51.400;6.770;2023-05-16T14:01:01;17.10;93.10
32614;DHT22;19031;51.400;6.770;2023-05-16T14:03:27;17.20;92.60
32614;DHT22;19031;51.400;6.770;2023-05-16T14:05:53;17.40;93.40
32614;DHT22;19031;51.400;6.770;2023-05-16T14:08:18;18.10;92.70
32614;DHT22;19031;51.400;6.770;2023-05-16T14:10:44;18.70;92.30
32614;DHT22;19031;51.400;6.770;2023-05-16T14:13:10;19.10;91.20
32614;DHT22;19031;51.400;6.770;2023-05-16T14:15:35;19.00;91.10
32614;DHT22;19031;51.400;6.770;2023-05-16T14:18:01;18.90;91.20
32614;DHT22;19031;51.400;6.770;2023-05-16T14:20:29;18.50;91.50
32614;DHT22;19031;51.400;6.770;2023-05-16T14:22:54;18.30;93.20
32614;DHT22;19031;51.400;6.770;2023-05-16T14:25:21;18.00;91.10
32614;DHT22;19031;51.400;6.770;2023-05-16T14:27:46;17.40;93.90
32614;DHT22;19031;51.400;6.770;2023-05-16T14:30:15;17.60;92.90
32614;DHT22;19031;51.400;6.770;2023-05-16T14:32:40;17.90;92.00
32614;DHT22;19031;51.400;6.770;2023-05-16T14:35:06;18.90;93.90
32614;DHT22;19031;51.400;6.770;2023-05-16T14:37:34;18.90;91.00
32614;DHT22;19031;51.400;6.770;2023-05-16T14:39:59;19.10;87.60
32614;DHT22;19031;51.400;6.770;2023-05-16T14:42:25;17.80;90.60
32614;DHT22;19031;51.400;6.770;2023-05-16T14:44:51;17.50;92.90
32614;DHT22;19031;51.400;6.770;2023-05-16T14:47:16;17.10;93.10
32614;DHT22;19031;51.400;6.770;2023-05-16T14:49:42;16.70;94.60
32614;DHT22;19031;51.400;6.770;2023-05-16T14:52:07;16.50;95.70
32614;DHT22;19031;51.400;6.770;2023-05-16T14:54:33;16.40;96.30
32614;DHT22;19031;51.400;6.770;2023-05-16T14:56:59;16.30;96.00
32614;DHT22;19031;51.400;6.770;2023-05-16T14:59:26;16.10;97.60
32614;DHT22;19031;51.400;6.770;2023-05-16T15:01:51;16.00;97.90
32614;DHT22;19031;51.400;6.770;2023-05-16T15:04:17;15.90;97.60
32614;DHT22;19031;51.400;6.770;2023-05-16T15:06:43;15.50;97.30
32614;DHT22;19031;51.400;6.770;2023-05-16T15:09:08;15.30;97.80
32614;DHT22;19031;51.400;6.770;2023-05-16T15:11:34;15.50;99.40
32614;DHT22;19031;51.400;6.770;2023-05-16T15:13:59;15.60;99.60
32614;DHT22;19031;51.400;6.770;2023-05-16T15:16:26;15.50;99.00
32614;DHT22;19031;51.400;6.770;2023-05-16T15:18:51;15.70;99.30
32614;DHT22;19031;51.400;6.770;2023-05-16T15:21:17;15.80;99.90
32614;DHT22;19031;51.400;6.770;2023-05-16T15:23:43;15.70;98.90
32614;DHT22;19031;51.400;6.770;2023-05-16T15:26:08;15.60;99.80
32614;DHT22;19031;51.400;6.770;2023-05-16T15:28:34;15.60;99.90
32614;DHT22;19031;51.400;6.770;2023-05-16T15:31:00;15.60;99.90
32614;DHT22;19031;51.400;6.770;2023-05-16T15:33:25;15.60;99.90
32614;DHT22;19031;51.400;6.770;2023-05-16T15:35:51;15.30;99.90
32614;DHT22;19031;51.400;6.770;2023-05-16T15:38:17;15.30;99.90
32614;DHT22;19031;51.400;6.770;2023-05-16T15:40:42;15.40;99.90
32614;DHT22;19031;51.400;6.770;2023-05-16T15:43:08;15.30;99.90
32614;DHT22;19031;51.400;6.770;2023-05-16T15:45:33;15.00;99.90
32614;DHT22;19031;51.400;6.770;2023-05-16T15:47:59;14.90;99.90